Mc Clellan Airfield
KMCC : now visible

Airfield :











YOU CAN JOIN US ON...

 
LOGIN :

Register | Disclaimer

   EN    FR    IT 

 









Legend :    VFR   Marginal VFR   IFR   Intensive IFR   Very Intensive IFR
Visi :
Ceiling :
>= 8 km
>= 3000ft
5 to 8 km
1000 to 3000 ft
1500m to 5 km
500 to 1000 ft
800 to 1500m
200 to 500 ft
< 800m
< 200 ft
Symbols :   Thunderstorms  Fog  Heavy snow  Heavy precipitations  Wind > 20 kt






- Airport Elevation : 77 ft


KMCC - Mc Clellan

CURRENT METAR :
  • 220055Z AUTO 24010KT 10SM OVC050 21/17 A3003 RMK AO2

EXPIRED METARs :
  • 220035Z AUTO 24009KT 10SM SCT050 SCT065 OVC075 22/16 A3003 RMK AO2
  • 220015Z AUTO 23010KT 10SM FEW065 OVC075 22/16 A3003 RMK AO2
  • 212355Z AUTO 24007KT 10SM OVC075 23/16 A3003 RMK AO2
  • 212335Z AUTO 21006KT 10SM OVC070 23/15 A3003 RMK AO2
  • 212315Z AUTO 21006KT 10SM OVC070 23/15 A3004 RMK AO2
  • 212255Z AUTO 21005KT 10SM OVC070 23/14 A3004 RMK AO2
  • 212235Z AUTO 21007KT 10SM FEW050 OVC070 24/14 A3004 RMK AO2
  • 212215Z AUTO 19004KT 10SM BKN050 OVC070 23/13 A3004 RMK AO2
  • 212155Z AUTO 19006KT 10SM BKN048 OVC070 23/13 A3005 RMK AO2

TAF KMCC
Valid from the 22 at 00:00 until the 23 at 00:00 UTC


212332Z 2200/2224 21005KT P6SM OVC070
FM221000 18016KT 4SM RA OVC025
KZOA FIR / North America



MET'MAP, your aeronautical weather chart ! - Copyright ORBIFLY December 2007 - Disclaimer

ORBIFLY MET'MAP TEAM :

Programming & Development : Alexandra Zaïnal
Concept & original design : Baudouin d'Aumeries
Assistance for programming : Marc-Olivier Méhu
Technical & hardware support : Manuel Goepfert

Contact : metmap@orbifly.com




SOURCES & CREDITS :

   NOAA       Earth
Advisory